Time;durP1;ratioP1;P1;durP2;ratioP2;P2;SDS_P1;SDS_P2;PMS_P1;PMS_P2;Temp;Humidity;BMP_temperature;BMP_pressure;BME280_temperature;BME280_humidity;BME280_pressure;Samples;Min_cycle;Max_cycle;Signal;HPM_P1;HPM_P2
2021/05/09 00:01:05;;;;;;;31.93;17.92;;;;;;;1.66;64.33;97617.33;1863803;76;35157;-80
2021/05/09 00:03:44;;;;;;;26.50;15.38;;;;;;;1.63;64.31;97613.14;1855118;76;35318;-80
2021/05/09 00:06:23;;;;;;;22.77;13.10;;;;;;;1.61;64.40;97613.77;1873119;76;34823;-80
2021/05/09 00:09:02;;;;;;;23.05;12.25;;;;;;;1.62;64.45;97612.79;1814832;76;34908;-78
2021/05/09 00:11:41;;;;;;;28.70;15.05;;;;;;;1.61;64.53;97613.77;1865711;76;35061;-79
2021/05/09 00:14:22;;;;;;;28.95;14.63;;;;;;;1.58;64.48;97610.08;1876918;74;35237;-80
2021/05/09 00:17:01;;;;;;;25.60;12.55;;;;;;;1.56;64.55;97610.75;1877316;76;34832;-80
2021/05/09 00:19:39;;;;;;;22.45;11.95;;;;;;;1.55;64.64;97606.91;1873026;76;34821;-77
2021/05/09 00:22:18;;;;;;;21.12;10.80;;;;;;;1.51;64.70;97610.34;1821440;76;34852;-78
2021/05/09 00:24:55;;;;;;;24.87;10.53;;;;;;;1.49;64.66;97608.32;1865086;76;34868;-79
2021/05/09 00:27:34;;;;;;;19.00;10.70;;;;;;;1.45;64.73;97612.26;1872670;75;34802;-77
2021/05/09 00:30:15;;;;;;;20.40;10.95;;;;;;;1.45;64.76;97615.76;1873137;76;34745;-77
2021/05/09 00:32:53;;;;;;;17.05;9.23;;;;;;;1.49;64.79;97616.30;1850365;74;35038;-78
2021/05/09 00:35:31;;;;;;;15.30;9.10;;;;;;;1.50;64.81;97615.32;1872996;76;34807;-77
2021/05/09 00:38:10;;;;;;;15.13;9.00;;;;;;;1.47;64.98;97606.30;1836501;76;34836;-78
2021/05/09 00:40:47;;;;;;;17.37;9.63;;;;;;;1.42;65.00;97614.75;1833226;76;34834;-77
2021/05/09 00:43:25;;;;;;;15.18;8.65;;;;;;;1.40;64.96;97611.39;1866185;76;34876;-79
2021/05/09 00:46:04;;;;;;;14.95;8.70;;;;;;;1.38;65.05;97613.86;1848807;76;34818;-78
2021/05/09 00:48:43;;;;;;;14.80;9.05;;;;;;;1.36;65.02;97623.31;1873041;76;34781;-78
2021/05/09 00:51:22;;;;;;;19.07;10.48;;;;;;;1.32;65.03;97612.64;1872875;76;34851;-78
2021/05/09 00:54:02;;;;;;;19.87;10.75;;;;;;;1.28;65.26;97618.40;1821958;76;34814;-80
2021/05/09 00:56:40;;;;;;;31.85;14.73;;;;;;;1.27;65.25;97616.23;1875061;75;34775;-80
2021/05/09 00:59:18;;;;;;;21.40;11.97;;;;;;;1.25;65.33;97617.35;1849794;76;35296;-78
2021/05/09 01:01:57;;;;;;;17.80;11.10;;;;;;;1.22;65.46;97614.98;1838349;75;34842;-78
2021/05/09 01:04:37;;;;;;;22.00;10.60;;;;;;;1.18;65.35;97608.30;1872812;76;35236;-80
2021/05/09 01:07:16;;;;;;;23.38;9.30;;;;;;;1.14;65.45;97611.75;1874262;76;34741;-79
2021/05/09 01:09:54;;;;;;;18.17;10.48;;;;;;;1.16;65.62;97618.25;1872910;76;34828;-78
2021/05/09 01:12:33;;;;;;;19.30;10.10;;;;;;;1.16;65.68;97602.30;1864177;76;34815;-78
2021/05/09 01:15:14;;;;;;;19.62;10.72;;;;;;;1.16;65.75;97607.61;1816953;76;34902;-78
2021/05/09 01:17:52;;;;;;;20.95;10.15;;;;;;;1.15;65.77;97601.95;1829357;76;34874;-77
2021/05/09 01:20:33;;;;;;;22.48;12.05;;;;;;;1.16;65.84;97602.30;1857338;76;34880;-77
2021/05/09 01:23:12;;;;;;;23.38;11.93;;;;;;;1.15;65.95;97604.61;1878911;76;34882;-78
2021/05/09 01:25:50;;;;;;;21.97;12.45;;;;;;;1.12;66.02;97600.91;1846227;76;34846;-79
2021/05/09 01:28:29;;;;;;;20.75;10.75;;;;;;;1.09;66.12;97597.55;1825257;75;34800;-78
2021/05/09 01:31:07;;;;;;;18.82;10.85;;;;;;;1.08;66.14;97597.23;1872918;75;34856;-79
2021/05/09 01:33:46;;;;;;;18.27;10.43;;;;;;;1.06;66.09;97592.55;1817582;76;34912;-79
2021/05/09 01:36:25;;;;;;;17.92;10.23;;;;;;;1.04;66.13;97589.69;1856532;76;34845;-80
2021/05/09 01:39:06;;;;;;;19.42;11.08;;;;;;;1.00;66.17;97594.95;1864812;76;34774;-80
2021/05/09 01:41:45;;;;;;;21.57;10.38;;;;;;;0.99;66.23;97595.93;1832833;76;34844;-79
2021/05/09 01:44:24;;;;;;;24.07;12.15;;;;;;;0.97;66.25;97593.91;1873158;76;34807;-80
2021/05/09 01:47:02;;;;;;;22.27;11.48;;;;;;;0.95;66.35;97587.44;1873190;76;34783;-79
2021/05/09 01:49:40;;;;;;;25.62;11.53;;;;;;;0.94;66.25;97593.73;1853484;74;34853;-78
2021/05/09 01:52:20;;;;;;;23.05;11.10;;;;;;;0.96;66.40;97590.44;1873158;76;35234;-79
2021/05/09 01:54:59;;;;;;;22.62;10.45;;;;;;;0.95;66.45;97590.09;1886269;76;34703;-79
2021/05/09 01:57:37;;;;;;;19.90;10.48;;;;;;;0.96;66.46;97591.77;1863154;76;34806;-78
2021/05/09 02:00:18;;;;;;;16.52;9.05;;;;;;;0.98;66.47;97588.44;1872974;76;35327;-80
2021/05/09 02:02:56;;;;;;;16.07;9.00;;;;;;;1.01;66.48;97593.97;1832188;76;34812;-80
2021/05/09 02:05:34;;;;;;;19.40;10.15;;;;;;;1.00;66.54;97593.13;1825072;76;34715;-78
2021/05/09 02:08:13;;;;;;;14.45;8.78;;;;;;;0.95;66.52;97590.09;1867824;76;34786;-80
2021/05/09 02:10:52;;;;;;;15.23;8.95;;;;;;;0.96;66.62;97587.78;1848933;76;34845;-79
2021/05/09 02:13:31;;;;;;;19.57;9.88;;;;;;;0.97;66.74;97590.75;1817099;76;35135;-77
2021/05/09 02:16:09;;;;;;;16.70;9.23;;;;;;;0.95;66.71;97592.75;1823814;76;34894;-78
2021/05/09 02:18:48;;;;;;;18.17;9.35;;;;;;;0.94;66.64;97596.39;1872962;76;34803;-79
2021/05/09 02:21:27;;;;;;;19.32;11.45;;;;;;;0.95;66.72;97591.42;1873005;76;35744;-78
2021/05/09 02:24:06;;;;;;;17.40;9.65;;;;;;;0.92;66.75;97586.39;1834361;76;34787;-80
2021/05/09 02:26:46;;;;;;;19.32;10.08;;;;;;;0.90;66.74;97593.67;1817233;76;34836;-80
2021/05/09 02:29:25;;;;;;;19.80;9.80;;;;;;;0.90;66.74;97597.66;1873165;76;35226;-80
2021/05/09 02:32:04;;;;;;;20.70;10.85;;;;;;;0.89;66.82;97592.48;1817173;76;34765;-77
2021/05/09 02:34:43;;;;;;;19.42;10.82;;;;;;;0.89;66.85;97589.83;1848887;76;34757;-79
2021/05/09 02:37:22;;;;;;;21.68;11.48;;;;;;;0.86;66.88;97588.29;1817099;76;34803;-77
2021/05/09 02:40:00;;;;;;;22.65;11.35;;;;;;;0.86;66.92;97590.11;1873044;76;34832;-80
2021/05/09 02:42:39;;;;;;;25.00;11.53;;;;;;;0.84;66.87;97583.64;1873031;76;34790;-78
2021/05/09 02:45:17;;;;;;;21.97;11.83;;;;;;;0.87;66.90;97580.66;1873034;76;34746;-77
2021/05/09 02:47:55;;;;;;;21.77;11.03;;;;;;;0.88;67.02;97574.37;1873049;76;34666;-78
2021/05/09 02:50:33;;;;;;;24.75;11.35;;;;;;;0.89;67.10;97585.84;1872221;76;34763;-79
2021/05/09 02:53:12;;;;;;;21.40;10.65;;;;;;;0.88;67.09;97582.34;1830675;76;35194;-77
2021/05/09 02:55:51;;;;;;;19.02;9.48;;;;;;;0.89;67.14;97579.20;1815531;76;35257;-79
2021/05/09 02:58:29;;;;;;;24.47;11.88;;;;;;;0.92;67.16;97582.41;1873089;76;35724;-79
2021/05/09 03:01:07;;;;;;;26.48;13.15;;;;;;;0.95;67.16;97587.44;1849052;76;35127;-77
2021/05/09 03:03:45;;;;;;;24.30;13.62;;;;;;;0.96;67.31;97583.80;1873022;76;34718;-79
2021/05/09 03:06:22;;;;;;;36.40;18.57;;;;;;;0.96;67.25;97587.78;1871307;76;34833;-77
2021/05/09 03:09:00;;;;;;;43.75;22.27;;;;;;;1.00;67.31;97585.64;1873200;76;34723;-77
2021/05/09 03:11:39;;;;;;;37.78;19.42;;;;;;;1.01;67.41;97590.81;1821580;76;34726;-79
2021/05/09 03:14:17;;;;;;;37.80;18.27;;;;;;;1.03;67.34;97590.19;1882272;74;35273;-77
2021/05/09 03:16:56;;;;;;;24.75;13.32;;;;;;;1.06;67.30;97594.38;1868472;76;34837;-79
2021/05/09 03:19:34;;;;;;;17.27;8.93;;;;;;;1.06;67.35;97597.88;1864795;76;35230;-79
2021/05/09 03:22:12;;;;;;;30.52;13.88;;;;;;;1.06;67.35;97597.88;1839435;76;35863;-80
2021/05/09 03:24:51;;;;;;;40.90;17.50;;;;;;;1.09;67.42;97600.21;1820455;76;35165;-80
2021/05/09 03:27:28;;;;;;;31.42;13.75;;;;;;;1.10;67.38;97598.39;1823768;76;34825;-77
2021/05/09 03:30:09;;;;;;;25.72;12.30;;;;;;;1.10;67.39;97601.05;1866298;76;34859;-77
2021/05/09 03:32:47;;;;;;;28.00;12.37;;;;;;;1.09;67.34;97594.89;1886637;74;34831;-79
2021/05/09 03:35:26;;;;;;;25.90;11.65;;;;;;;1.11;67.36;97601.89;1877752;76;34997;-79
2021/05/09 03:38:06;;;;;;;33.70;13.10;;;;;;;1.11;67.38;97595.23;1868684;74;34788;-77
2021/05/09 03:40:45;;;;;;;24.95;12.05;;;;;;;1.13;67.35;97591.95;1821389;76;34821;-77
2021/05/09 03:43:23;;;;;;;26.12;11.18;;;;;;;1.12;67.36;97596.92;1874369;76;34680;-78
2021/05/09 03:46:02;;;;;;;33.58;13.72;;;;;;;1.14;67.43;97601.60;1835603;76;34843;-77
2021/05/09 03:48:40;;;;;;;34.95;14.18;;;;;;;1.15;67.45;97605.94;1873048;75;35223;-79
2021/05/09 03:51:18;;;;;;;36.10;13.08;;;;;;;1.16;67.44;97603.13;1873662;74;34742;-79
2021/05/09 03:53:57;;;;;;;28.02;11.90;;;;;;;1.17;67.53;97611.95;1879029;76;34781;-77
2021/05/09 03:56:35;;;;;;;24.12;11.12;;;;;;;1.19;67.56;97617.96;1853537;74;34803;-79
2021/05/09 03:59:13;;;;;;;18.20;9.88;;;;;;;1.20;67.66;97619.64;1826356;76;34728;-79
2021/05/09 04:01:50;;;;;;;26.30;12.10;;;;;;;1.16;67.60;97619.09;1873187;76;34691;-79
2021/05/09 04:04:29;;;;;;;36.40;15.55;;;;;;;1.18;67.69;97622.44;1873068;76;34836;-80
2021/05/09 04:07:08;;;;;;;38.92;17.25;;;;;;;1.22;67.74;97624.29;1848889;76;34763;-77
2021/05/09 04:09:46;;;;;;;44.27;17.92;;;;;;;1.26;67.76;97626.52;1816307;76;34859;-77
2021/05/09 04:12:25;;;;;;;44.40;17.40;;;;;;;1.28;67.77;97619.72;1830167;76;35218;-79
2021/05/09 04:15:04;;;;;;;32.33;13.65;;;;;;;1.30;67.80;97631.89;1825627;76;34849;-78
2021/05/09 04:17:42;;;;;;;27.93;11.22;;;;;;;1.31;67.73;97626.09;1836668;76;34786;-77
2021/05/09 04:20:21;;;;;;;22.87;10.10;;;;;;;1.32;67.85;97627.77;1886647;76;34819;-79
2021/05/09 04:23:19;;;;;;;22.55;9.65;;;;;;;1.36;67.99;97625.13;1853650;74;34886;-77
2021/05/09 04:25:57;;;;;;;16.60;8.83;;;;;;;1.43;68.01;97622.23;1824651;76;34864;-78
2021/05/09 04:28:35;;;;;;;16.27;7.67;;;;;;;1.48;68.10;97618.62;1872977;76;34835;-78
2021/05/09 04:31:13;;;;;;;13.83;8.60;;;;;;;1.52;68.00;97622.66;1873193;76;34754;-78
2021/05/09 04:33:52;;;;;;;21.85;9.85;;;;;;;1.59;68.07;97621.06;1873039;76;34901;-78
2021/05/09 04:36:31;;;;;;;18.07;10.38;;;;;;;1.65;68.11;97620.48;1868599;76;34778;-77
2021/05/09 04:39:10;;;;;;;18.80;9.50;;;;;;;1.73;68.17;97615.72;1886298;74;34852;-79
2021/05/09 04:41:47;;;;;;;18.67;9.75;;;;;;;1.81;68.15;97619.81;1873003;76;34713;-80
2021/05/09 04:44:25;;;;;;;13.35;8.33;;;;;;;1.90;68.11;97630.04;1861712;76;35228;-78
2021/05/09 04:47:04;;;;;;;15.48;8.00;;;;;;;1.98;68.37;97621.63;1848942;76;35183;-78
2021/05/09 04:49:42;;;;;;;15.70;8.38;;;;;;;2.07;68.26;97614.05;1872658;76;34765;-78
2021/05/09 04:52:21;;;;;;;13.32;7.95;;;;;;;2.18;68.16;97616.47;1873119;76;34733;-78
2021/05/09 04:54:59;;;;;;;13.03;7.72;;;;;;;2.30;68.29;97614.89;1831620;76;34840;-80
2021/05/09 04:57:38;;;;;;;17.23;9.35;;;;;;;2.40;68.40;97612.51;1848941;76;34822;-80
2021/05/09 05:00:17;;;;;;;16.52;8.60;;;;;;;2.50;68.29;97618.57;1837600;76;34754;-80
2021/05/09 05:02:56;;;;;;;13.62;7.45;;;;;;;2.60;68.29;97618.46;1872578;76;34814;-78
2021/05/09 05:05:34;;;;;;;14.47;7.37;;;;;;;2.69;68.20;97618.02;1836660;76;34758;-80
2021/05/09 05:08:12;;;;;;;12.20;7.40;;;;;;;2.81;68.24;97610.09;1873248;76;35143;-80
2021/05/09 05:10:51;;;;;;;14.65;7.33;;;;;;;2.91;68.11;97610.80;1873132;76;35042;-78
2021/05/09 05:13:31;;;;;;;13.30;7.67;;;;;;;3.04;68.03;97611.21;1868887;76;35368;-80
2021/05/09 05:16:10;;;;;;;14.00;6.62;;;;;;;3.15;67.97;97611.42;1848720;76;34905;-80
2021/05/09 05:18:48;;;;;;;13.90;7.37;;;;;;;3.26;68.09;97612.47;1865407;76;32050;-78
2021/05/09 05:21:26;;;;;;;13.62;7.50;;;;;;;3.38;67.92;97609.05;1827596;76;26190;-78
2021/05/09 05:24:07;;;;;;;13.75;8.13;;;;;;;3.50;67.90;97607.75;1873113;76;27993;-80
2021/05/09 05:26:46;;;;;;;16.17;9.90;;;;;;;3.64;67.99;97608.43;1871772;76;34875;-80
2021/05/09 05:29:24;;;;;;;12.23;7.80;;;;;;;3.77;67.97;97607.47;1873015;76;25712;-80
2021/05/09 05:32:06;;;;;;;13.28;7.72;;;;;;;3.92;67.80;97609.84;1835538;75;34909;-80
2021/05/09 05:34:44;;;;;;;11.08;6.72;;;;;;;4.08;67.61;97606.86;1873205;76;29071;-80
2021/05/09 05:37:21;;;;;;;10.10;6.45;;;;;;;4.24;67.68;97610.36;1817348;76;25682;-79
2021/05/09 05:39:59;;;;;;;11.93;6.50;;;;;;;4.41;67.30;97599.17;1862873;76;25798;-81
2021/05/09 05:42:38;;;;;;;10.38;5.90;;;;;;;4.59;67.09;97604.32;1861834;75;34869;-78
2021/05/09 05:45:17;;;;;;;14.53;6.72;;;;;;;4.71;67.07;97604.30;1873123;76;25648;-81
2021/05/09 05:47:56;;;;;;;9.10;5.75;;;;;;;4.93;67.18;97594.75;1841850;76;34842;-79
2021/05/09 05:50:35;;;;;;;11.90;6.10;;;;;;;5.12;67.03;97594.84;1846769;76;35312;-81
2021/05/09 05:53:24;;;;;;;15.70;5.97;;;;;;;5.28;66.83;97598.81;1843409;76;25676;-79
2021/05/09 05:56:02;;;;;;;11.85;6.80;;;;;;;5.47;66.58;97586.84;1848864;76;25690;-81
2021/05/09 05:58:40;;;;;;;8.88;5.37;;;;;;;5.63;66.27;97585.42;1841401;76;25805;-79
2021/05/09 06:01:19;;;;;;;6.40;4.20;;;;;;;5.81;65.67;97583.30;1867450;76;27512;-81
2021/05/09 06:03:58;;;;;;;7.03;4.08;;;;;;;6.05;65.21;97572.95;1878253;76;25664;-81
2021/05/09 06:06:37;;;;;;;5.90;4.10;;;;;;;6.22;64.80;97574.50;1850581;74;25673;-82
2021/05/09 06:09:16;;;;;;;5.87;4.53;;;;;;;6.37;64.37;97574.05;1873021;76;25659;-79
2021/05/09 06:11:54;;;;;;;7.50;3.90;;;;;;;6.60;64.19;97571.83;1844094;74;25637;-81
2021/05/09 06:14:33;;;;;;;4.55;3.15;;;;;;;6.86;63.31;97574.41;1848940;76;25580;-80
2021/05/09 06:17:11;;;;;;;6.67;3.85;;;;;;;7.07;62.78;97572.84;1863698;76;26112;-79
2021/05/09 06:19:49;;;;;;;4.92;3.45;;;;;;;7.24;62.47;97581.04;1855448;76;25771;-79
2021/05/09 06:22:28;;;;;;;5.67;3.55;;;;;;;7.39;62.49;97577.81;1873002;76;25783;-81
2021/05/09 06:25:07;;;;;;;5.33;3.27;;;;;;;7.57;62.52;97574.23;1815781;76;25647;-80
2021/05/09 06:27:45;;;;;;;8.90;3.98;;;;;;;7.81;61.77;97573.57;1829760;76;25946;-81
2021/05/09 06:30:25;;;;;;;6.72;3.60;;;;;;;8.00;61.92;97568.91;1865827;76;25628;-79
2021/05/09 06:33:04;;;;;;;5.72;3.52;;;;;;;8.20;61.43;97568.61;1873124;76;25652;-81
2021/05/09 06:35:43;;;;;;;5.45;3.72;;;;;;;8.42;60.49;97568.63;1873075;76;25870;-81
2021/05/09 06:38:20;;;;;;;5.45;3.65;;;;;;;8.60;60.06;97571.15;1886791;74;25607;-79
2021/05/09 06:40:59;;;;;;;5.95;4.22;;;;;;;8.79;60.02;97568.31;1861541;75;25701;-81
2021/05/09 06:43:38;;;;;;;5.22;3.25;;;;;;;9.00;59.87;97556.13;1873033;76;25726;-79
2021/05/09 06:46:17;;;;;;;7.60;3.60;;;;;;;9.19;59.69;97549.69;1842039;76;25564;-80
2021/05/09 06:48:56;;;;;;;5.62;3.60;;;;;;;9.52;59.31;97530.49;1815196;76;25671;-80
2021/05/09 06:51:35;;;;;;;3.92;2.77;;;;;;;9.59;59.03;97527.80;1873109;75;25622;-80
2021/05/09 06:54:13;;;;;;;5.42;3.65;;;;;;;9.87;57.47;97545.22;1885193;74;25719;-82
2021/05/09 06:56:53;;;;;;;4.87;2.58;;;;;;;10.02;57.58;97540.48;1839054;76;25588;-81
2021/05/09 06:59:31;;;;;;;3.65;2.40;;;;;;;10.24;56.90;97539.30;1873197;76;25549;-79
2021/05/09 07:02:10;;;;;;;3.50;2.37;;;;;;;10.41;55.90;97541.90;1822099;76;25706;-79
2021/05/09 07:04:49;;;;;;;4.20;2.47;;;;;;;10.60;54.64;97537.55;1870949;75;25663;-80
2021/05/09 07:07:27;;;;;;;2.67;2.30;;;;;;;10.80;54.35;97532.13;1827994;76;25642;-79
2021/05/09 07:10:06;;;;;;;4.10;2.27;;;;;;;10.92;52.87;97529.10;1848499;76;25672;-79
2021/05/09 07:12:44;;;;;;;5.67;2.80;;;;;;;11.06;52.28;97523.16;1884726;74;25754;-79
2021/05/09 07:15:26;;;;;;;3.75;2.50;;;;;;;11.19;51.92;97531.23;1841755;76;25810;-80
2021/05/09 07:18:09;;;;;;;3.62;2.30;;;;;;;11.34;51.43;97528.28;1873171;76;25653;-80
2021/05/09 07:20:53;;;;;;;3.35;2.40;;;;;;;11.46;50.99;97520.64;1861833;75;26253;-79
2021/05/09 07:23:31;;;;;;;3.35;2.12;;;;;;;11.61;50.25;97518.17;1874880;76;25798;-79
2021/05/09 07:26:09;;;;;;;2.42;1.95;;;;;;;11.76;49.71;97510.13;1873174;76;26111;-81
2021/05/09 07:28:48;;;;;;;3.15;2.20;;;;;;;11.93;48.69;97510.98;1873095;76;25687;-79
2021/05/09 07:31:27;;;;;;;4.17;2.40;;;;;;;12.08;48.32;97510.96;1873126;76;25696;-77
2021/05/09 07:34:05;;;;;;;4.08;2.52;;;;;;;12.29;47.52;97517.09;1866426;76;25653;-80
2021/05/09 07:36:44;;;;;;;5.25;2.65;;;;;;;12.66;46.85;97517.52;1873129;76;25569;-81
2021/05/09 07:39:23;;;;;;;3.67;2.65;;;;;;;13.13;46.58;97511.95;1830844;76;25605;-80
2021/05/09 07:42:02;;;;;;;6.28;2.67;;;;;;;13.68;46.38;97506.00;1821124;76;25682;-80
2021/05/09 07:44:41;;;;;;;3.87;3.00;;;;;;;14.20;45.68;97509.03;1835109;76;25604;-80
2021/05/09 07:47:19;;;;;;;4.75;2.90;;;;;;;14.62;44.30;97503.05;1873067;76;25774;-81
2021/05/09 07:49:58;;;;;;;3.35;2.77;;;;;;;15.09;44.24;97497.09;1873044;75;25587;-82
2021/05/09 07:52:37;;;;;;;3.50;2.85;;;;;;;15.53;44.18;97499.41;1871653;74;25716;-80
2021/05/09 07:55:17;;;;;;;5.35;3.02;;;;;;;15.88;43.09;97502.04;1828336;76;25625;-82
2021/05/09 07:57:57;;;;;;;5.05;2.65;;;;;;;16.12;41.34;97503.59;1873022;76;25647;-80
2021/05/09 08:00:35;;;;;;;3.85;2.80;;;;;;;16.29;40.59;97502.28;1873092;76;25549;-82
2021/05/09 08:03:14;;;;;;;3.50;3.00;;;;;;;16.55;40.45;97501.09;1816564;76;25836;-80
2021/05/09 08:05:52;;;;;;;5.67;2.90;;;;;;;16.76;38.68;97504.20;1864314;76;25703;-80
2021/05/09 08:08:32;;;;;;;3.35;2.85;;;;;;;16.96;37.28;97503.14;1873175;76;25705;-80
2021/05/09 08:11:10;;;;;;;4.65;2.90;;;;;;;17.21;38.28;97506.78;1873125;76;25618;-78
2021/05/09 08:13:49;;;;;;;3.67;3.02;;;;;;;17.35;35.56;97491.70;1874382;76;26189;-82
2021/05/09 08:16:28;;;;;;;5.00;2.90;;;;;;;17.40;36.54;97501.30;1878820;74;25620;-81
2021/05/09 08:19:06;;;;;;;3.55;2.90;;;;;;;17.70;37.17;97494.09;1849203;76;25966;-81
2021/05/09 08:21:43;;;;;;;4.00;2.85;;;;;;;17.89;36.29;97485.84;1870386;76;25571;-82
2021/05/09 08:24:22;;;;;;;3.40;2.83;;;;;;;18.00;35.86;97482.68;1873148;76;25613;-81
2021/05/09 08:27:00;;;;;;;3.22;2.70;;;;;;;18.39;35.93;97480.63;1848747;76;25626;-82
2021/05/09 08:29:39;;;;;;;4.83;2.92;;;;;;;18.60;34.97;97480.28;1872941;75;26150;-81
2021/05/09 08:32:18;;;;;;;4.72;2.70;;;;;;;18.84;34.34;97478.01;1844377;74;25680;-81
2021/05/09 08:34:57;;;;;;;2.67;2.30;;;;;;;19.16;35.11;97475.23;1886606;76;25679;-80
2021/05/09 08:37:37;;;;;;;2.75;2.50;;;;;;;19.48;34.08;97467.73;1863324;76;26260;-82
2021/05/09 08:40:17;;;;;;;4.05;2.70;;;;;;;19.69;33.26;97474.97;1886676;76;25592;-80
2021/05/09 08:42:56;;;;;;;2.75;2.40;;;;;;;20.04;33.93;97472.09;1848975;76;25600;-81
2021/05/09 08:45:35;;;;;;;2.87;2.50;;;;;;;20.45;33.49;97481.23;1869253;76;25682;-82
2021/05/09 08:48:18;;;;;;;2.35;2.15;;;;;;;20.53;32.31;97478.52;1873189;76;26137;-79
2021/05/09 08:50:55;;;;;;;2.37;2.00;;;;;;;20.89;32.95;97480.13;1835329;76;25675;-80
2021/05/09 08:53:35;;;;;;;2.92;2.33;;;;;;;21.16;30.97;97482.02;1873137;76;25711;-81
2021/05/09 08:56:14;;;;;;;3.42;2.37;;;;;;;21.20;31.35;97474.92;1873038;76;25601;-81
2021/05/09 08:58:54;;;;;;;2.40;2.10;;;;;;;21.62;31.18;97465.45;1856582;76;25661;-81
2021/05/09 09:01:34;;;;;;;2.37;2.17;;;;;;;22.03;31.15;97466.12;1873055;76;26166;-81
2021/05/09 09:04:14;;;;;;;2.10;1.90;;;;;;;22.49;31.33;97458.94;1825689;76;25653;-81
2021/05/09 09:06:54;;;;;;;2.35;2.00;;;;;;;22.85;30.77;97458.13;1863101;74;25751;-82
2021/05/09 09:09:33;;;;;;;3.02;2.05;;;;;;;23.18;30.27;97446.27;1836888;76;25905;-82
2021/05/09 09:12:14;;;;;;;2.27;1.75;;;;;;;23.47;30.23;97444.83;1848848;76;25608;-81
2021/05/09 09:14:59;;;;;;;2.50;1.80;;;;;;;23.57;28.95;97446.66;1817446;75;25583;-81
2021/05/09 09:17:38;;;;;;;2.73;1.97;;;;;;;23.63;28.70;97440.81;1849532;76;38235;-81
2021/05/09 09:20:18;;;;;;;3.12;1.67;;;;;;;24.08;27.95;97432.22;1848914;76;25621;-82
2021/05/09 09:23:03;;;;;;;3.87;1.75;;;;;;;24.15;27.27;97434.07;1873165;76;25764;-81
2021/05/09 09:25:41;;;;;;;1.75;1.62;;;;;;;24.04;27.20;97439.70;1863920;76;25795;-82
2021/05/09 09:28:20;;;;;;;2.90;2.10;;;;;;;23.90;26.67;97438.83;1873210;76;25219;-82
2021/05/09 09:30:59;;;;;;;3.02;1.80;;;;;;;23.72;26.72;97432.70;1870135;76;25579;-82
2021/05/09 09:33:42;;;;;;;2.85;1.70;;;;;;;24.01;27.30;97433.43;1835478;76;25769;-81
2021/05/09 09:36:21;;;;;;;3.77;1.72;;;;;;;24.06;25.64;97426.45;1854115;76;25749;-82
2021/05/09 09:38:59;;;;;;;1.42;1.15;;;;;;;23.96;27.18;97423.84;1832559;76;25689;-82
2021/05/09 09:41:47;;;;;;;3.83;1.32;;;;;;;24.15;27.01;97432.69;1861747;76;25291;-81
2021/05/09 09:44:28;;;;;;;1.07;0.98;;;;;;;24.07;24.75;97443.81;1861578;76;25725;-82
2021/05/09 09:47:07;;;;;;;1.45;0.93;;;;;;;23.79;24.18;97426.27;1817492;76;25680;-79
2021/05/09 09:49:45;;;;;;;1.25;1.00;;;;;;;23.55;23.26;97433.73;1873029;75;25712;-81
2021/05/09 09:52:28;;;;;;;0.95;0.90;;;;;;;23.34;24.61;97433.95;1832649;76;26413;-82
2021/05/09 09:55:15;;;;;;;1.70;0.82;;;;;;;23.47;24.32;97421.97;1873041;76;25754;-82
2021/05/09 09:58:06;;;;;;;1.80;1.00;;;;;;;23.62;23.86;97426.77;1843176;76;27792;-80
2021/05/09 10:00:49;;;;;;;1.50;0.68;;;;;;;23.73;23.08;97406.80;1872503;76;25759;-81
2021/05/09 10:03:28;;;;;;;1.57;0.90;;;;;;;23.88;23.87;97413.48;1866574;76;25711;-82
2021/05/09 10:06:07;;;;;;;1.60;0.93;;;;;;;23.90;23.22;97420.91;1873093;76;25661;-81
2021/05/09 10:08:46;;;;;;;3.72;0.98;;;;;;;23.77;23.31;97416.67;1843399;76;25463;-84
2021/05/09 10:11:24;;;;;;;1.20;1.10;;;;;;;23.86;23.49;97408.00;1873022;76;25598;-81
2021/05/09 10:14:05;;;;;;;2.05;1.22;;;;;;;23.95;23.47;97416.69;1848803;76;25699;-82
2021/05/09 10:17:04;;;;;;;1.37;0.88;;;;;;;23.94;23.11;97412.28;1853142;77;26412;-81
2021/05/09 10:19:44;;;;;;;2.33;1.67;;;;;;;24.00;23.68;97406.97;1821014;76;25573;-81
2021/05/09 10:22:31;;;;;;;3.33;1.65;;;;;;;24.20;23.10;97419.63;1872758;76;25705;-82
2021/05/09 10:25:12;;;;;;;1.60;0.80;;;;;;;24.25;23.44;97413.27;1832800;76;26196;-82
2021/05/09 10:27:51;;;;;;;2.42;1.12;;;;;;;24.25;23.24;97411.89;1864539;76;25607;-82
2021/05/09 10:30:35;;;;;;;2.02;1.30;;;;;;;24.39;24.15;97408.64;1865998;76;25727;-82
2021/05/09 10:33:41;;;;;;;1.65;1.50;;;;;;;24.68;24.28;97411.17;1823344;76;25570;-84
2021/05/09 10:36:25;;;;;;;1.47;1.10;;;;;;;24.94;23.09;97417.11;1856917;76;27719;-82
2021/05/09 10:39:17;;;;;;;1.57;1.12;;;;;;;25.16;22.94;97399.29;1835080;76;25626;-81
2021/05/09 10:42:02;;;;;;;1.15;0.90;;;;;;;25.14;22.27;97408.44;1872993;76;25671;-79
2021/05/09 10:44:45;;;;;;;0.90;0.90;;;;;;;24.95;22.85;97395.28;1873111;76;25675;-82
2021/05/09 10:47:32;;;;;;;1.35;0.90;;;;;;;25.01;23.06;97391.28;1866864;76;25735;-81
2021/05/09 10:50:21;;;;;;;1.42;0.95;;;;;;;25.09;23.15;97392.80;1844847;76;27719;-82
2021/05/09 10:53:00;;;;;;;6.80;4.65;;;;;;;25.57;22.93;97386.87;1842875;76;25630;-81
2021/05/09 10:55:46;;;;;;;2.40;1.90;;;;;;;25.74;21.13;97393.16;1873107;76;25618;-81
2021/05/09 10:58:51;;;;;;;1.93;1.43;;;;;;;25.45;21.45;97391.54;1849814;75;27947;-83
2021/05/09 11:01:37;;;;;;;2.20;1.20;;;;;;;25.51;21.65;97375.66;1873004;75;25633;-81
2021/05/09 11:04:16;;;;;;;1.42;0.90;;;;;;;25.54;21.65;97372.84;1848431;76;25882;-81
2021/05/09 11:06:55;;;;;;;2.37;1.82;;;;;;;25.51;22.05;97372.07;1817921;76;26069;-81
2021/05/09 11:09:39;;;;;;;2.90;2.25;;;;;;;25.58;22.41;97364.20;1849084;76;25684;-81
2021/05/09 11:12:16;;;;;;;1.82;1.42;;;;;;;25.70;22.99;97367.28;1868276;76;25712;-81
2021/05/09 11:14:59;;;;;;;2.40;1.77;;;;;;;25.66;21.53;97369.84;1817541;76;25970;-82
2021/05/09 11:17:38;;;;;;;1.40;1.30;;;;;;;25.59;22.40;97369.98;1827328;76;25601;-82
2021/05/09 11:20:17;;;;;;;1.20;0.78;;;;;;;25.53;22.00;97365.11;1848381;76;25610;-81
2021/05/09 11:23:00;;;;;;;2.05;1.20;;;;;;;25.75;22.76;97368.53;1848908;76;26165;-82
2021/05/09 11:25:45;;;;;;;2.77;0.93;;;;;;;25.56;21.22;97369.22;1844793;77;25756;-82
2021/05/09 11:28:29;;;;;;;4.40;1.07;;;;;;;25.48;21.52;97367.41;1825475;76;25643;-82
2021/05/09 11:31:26;;;;;;;0.90;0.90;;;;;;;25.47;21.68;97371.89;1873007;76;25582;-81
2021/05/09 11:34:06;;;;;;;1.50;1.30;;;;;;;25.49;21.72;97367.66;1854170;76;27712;-80
2021/05/09 11:36:47;;;;;;;1.47;1.10;;;;;;;25.71;20.73;97366.16;1873095;76;25477;-80
2021/05/09 11:39:36;;;;;;;1.15;1.05;;;;;;;25.68;20.94;97360.68;1876509;74;25541;-81
2021/05/09 11:42:19;;;;;;;1.20;1.02;;;;;;;25.65;21.94;97356.33;1873114;76;25864;-81
2021/05/09 11:44:58;;;;;;;4.62;1.50;;;;;;;25.89;22.17;97351.92;1873028;76;25433;-81
2021/05/09 11:47:39;;;;;;;2.10;1.42;;;;;;;26.31;22.30;97356.23;1848710;76;25557;-78
2021/05/09 11:50:18;;;;;;;1.30;0.88;;;;;;;26.57;21.03;97361.36;1865430;76;25605;-81
2021/05/09 11:52:57;;;;;;;2.27;1.02;;;;;;;26.37;21.34;97347.47;1817016;76;26105;-80
2021/05/09 11:55:35;;;;;;;1.20;1.10;;;;;;;26.26;21.51;97350.77;1825483;76;25584;-82
2021/05/09 11:58:14;;;;;;;2.05;0.80;;;;;;;26.34;22.27;97350.86;1873103;76;25607;-80
2021/05/09 12:00:53;;;;;;;1.00;0.80;;;;;;;26.51;21.93;97343.26;1862298;76;25679;-81
2021/05/09 12:03:32;;;;;;;1.10;1.05;;;;;;;26.59;21.54;97343.88;1873095;76;25588;-81
2021/05/09 12:06:11;;;;;;;0.93;0.90;;;;;;;26.85;22.44;97341.25;1855952;74;26262;-81
2021/05/09 12:08:50;;;;;;;3.00;0.88;;;;;;;26.99;22.02;97339.24;1873142;76;25277;-81
2021/05/09 12:11:28;;;;;;;1.37;0.78;;;;;;;26.88;21.02;97333.14;1871856;76;25684;-84
2021/05/09 12:14:07;;;;;;;2.25;1.00;;;;;;;26.82;21.65;97333.01;1830183;76;25674;-81
2021/05/09 12:16:48;;;;;;;0.50;0.50;;;;;;;26.89;21.75;97333.39;1866557;76;26226;-83
2021/05/09 12:19:31;;;;;;;0.60;0.60;;;;;;;26.78;20.91;97336.19;1873132;76;25831;-82
2021/05/09 12:22:10;;;;;;;1.72;1.02;;;;;;;26.61;21.11;97331.09;1817132;76;25587;-82
2021/05/09 12:24:57;;;;;;;2.05;0.95;;;;;;;26.48;21.20;97335.58;1849743;77;25705;-81
2021/05/09 12:27:47;;;;;;;1.82;1.00;;;;;;;26.48;21.89;97332.24;1848912;76;25601;-81
2021/05/09 12:30:30;;;;;;;1.85;1.05;;;;;;;26.60;21.34;97330.84;1866975;76;25634;-81